This is the latest recevied weather packets stored in our database for station/object ka8upw-1. If no packets are shown the sender has not sent any weather packets the latest 10 day(s).
| Time | Temp. | Humidity | Pressure | Rain* | Wind** | Luminosity | Snow |
|---|---|---|---|---|---|---|---|
| 1777746963 | 4.44° C | 88% | 1015.6 hPa | 0.25 mm | - | - | - |
| 1777746423 | 4.44° C | 89% | 1015.7 hPa | 0.25 mm | - | - | - |
| 1777744445 | 4.44° C | 84% | 1015.8 hPa | 0 mm | - | - | - |
| 1777736703 | 2.22° C | 90% | 1015.8 hPa | 0.76 mm | - | - | - |
| 1777734004 | 4.44° C | 81% | 1015.5 hPa | 0 mm | - | - | - |
| 1777730404 | 4.44° C | 87% | 1015.2 hPa | 0 mm | - | - | - |
| 1777725903 | 2.22° C | 90% | 1014.7 hPa | 0 mm | - | - | - |
| 1777724419 | 1.67° C | 89% | 1014.6 hPa | 0 mm | - | - | - |
| 1777722843 | 1.11° C | 88% | 1014.7 hPa | 0 mm | - | - | - |
| 1777719244 | 2.22° C | 86% | 1014.1 hPa | 0 mm | - | - | - |
| 1777718703 | 2.22° C | 86% | 1014.1 hPa | 0 mm | - | - | - |
| 1777718163 | 2.22° C | 86% | 1014.2 hPa | 0 mm | - | - | - |
| 1777717623 | 2.22° C | 86% | 1014.2 hPa | 0 mm | - | - | - |
| 1777717084 | 2.22° C | 86% | 1014.2 hPa | 0 mm | - | - | - |
| 1777706823 | 2.78° C | 92% | 1013.7 hPa | 0 mm | - | - | - |
| 1777701603 | 3.89° C | 92% | 1014 hPa | 0.25 mm | - | - | - |
| 1777700703 | 4.44° C | 92% | 1014.1 hPa | 0.25 mm | - | - | - |
| 1777698543 | 4.44° C | 93% | 1014.1 hPa | 0 mm | - | - | - |
| 1777698003 | 4.44° C | 93% | 1014.1 hPa | 0 mm | - | - | - |
| 1777695619 | 3.89° C | 92% | 1014 hPa | 0 mm | - | - | - |
| 1777693100 | 4.44° C | 92% | 1014.3 hPa | 0 mm | - | - | - |
| 1777690444 | 3.33° C | 90% | 1014 hPa | 0 mm | - | - | - |
| 1777688284 | 3.89° C | 88% | 1014 hPa | 0 mm | - | - | - |
| 1777683244 | 5.56° C | 85% | 1013.4 hPa | 0 mm | - | - | - |
| 1777676043 | 6.67° C | 82% | 1012.7 hPa | 0 mm | - | - | - |
* Rain latest hour (hover to see other rain measurements)
** Current wind speed in m/s (hover to see current wind gust speed)